Sardinia, Ohio
Current Conditions -  °F | °C
As of 6:54 AM on Monday 20 Oct 2014 (Local Time) from KILN Reporting Station
Broken Clouds Broken Clouds  
Wind Chill: 43°   Ceiling: 12000
Heat Index: 45°   Visibility: 8mi
Dew Point: 41°   Wind: 5mph
Humidity: 86%   Direction: 190°S
Pressure: 30"   Gusts: NA
Location:  39.01°N, 83.81°W
Report Text: KILN 201054Z AUTO 19004KT 8SM BKN120 07/05 A3000 RMK AO2 SLP170 T00720050
Loading
Personal Weather Stations






























Interactive Weather Map
Tropical Storm Tracking
New forecast layout! Learn more

10-Day Weather Forecast

Advertisements
Track Severe Weather on mobile